sensor_id;sensor_type;location;lat;lon;timestamp;pressure;altitude;pressure_sealevel;temperature;humidity
51245;BME280;37840;47.562;18.738;2023-06-01T00:00:28;99904.06;;;16.60;67.94
51245;BME280;37840;47.562;18.738;2023-06-01T00:02:54;99905.19;;;16.57;67.88
51245;BME280;37840;47.562;18.738;2023-06-01T00:05:20;99905.88;;;16.59;68.27
51245;BME280;37840;47.562;18.738;2023-06-01T00:07:46;99909.44;;;16.60;68.19
51245;BME280;37840;47.562;18.738;2023-06-01T00:10:12;99912.13;;;16.60;68.13
51245;BME280;37840;47.562;18.738;2023-06-01T00:12:39;99903.50;;;16.56;68.63
51245;BME280;37840;47.562;18.738;2023-06-01T00:15:05;99907.72;;;16.59;67.75
51245;BME280;37840;47.562;18.738;2023-06-01T00:17:31;99900.53;;;16.59;67.44
51245;BME280;37840;47.562;18.738;2023-06-01T00:19:57;99901.53;;;16.48;67.45
51245;BME280;37840;47.562;18.738;2023-06-01T00:22:29;99896.59;;;16.44;67.99
51245;BME280;37840;47.562;18.738;2023-06-01T00:25:00;99896.72;;;16.42;68.17
51245;BME280;37840;47.562;18.738;2023-06-01T00:27:26;99901.37;;;16.40;68.14
51245;BME280;37840;47.562;18.738;2023-06-01T00:29:52;99906.47;;;16.34;68.60
51245;BME280;37840;47.562;18.738;2023-06-01T00:32:18;99904.81;;;16.13;68.78
51245;BME280;37840;47.562;18.738;2023-06-01T00:34:44;99910.59;;;16.18;69.26
51245;BME280;37840;47.562;18.738;2023-06-01T00:37:10;99913.84;;;16.12;69.25
51245;BME280;37840;47.562;18.738;2023-06-01T00:39:35;99913.12;;;16.10;69.77
51245;BME280;37840;47.562;18.738;2023-06-01T00:42:01;99897.03;;;16.10;69.79
51245;BME280;37840;47.562;18.738;2023-06-01T00:44:27;99896.75;;;16.13;69.34
51245;BME280;37840;47.562;18.738;2023-06-01T00:46:53;99899.00;;;16.18;69.42
51245;BME280;37840;47.562;18.738;2023-06-01T00:49:19;99903.38;;;16.19;68.95
51245;BME280;37840;47.562;18.738;2023-06-01T00:51:45;99901.13;;;16.24;68.90
51245;BME280;37840;47.562;18.738;2023-06-01T00:54:11;99902.37;;;16.29;68.96
51245;BME280;37840;47.562;18.738;2023-06-01T00:56:37;99897.88;;;16.30;67.61
51245;BME280;37840;47.562;18.738;2023-06-01T00:59:04;99898.03;;;16.28;67.33
51245;BME280;37840;47.562;18.738;2023-06-01T01:01:31;99897.19;;;16.28;67.64
51245;BME280;37840;47.562;18.738;2023-06-01T01:03:57;99898.59;;;16.22;67.80
51245;BME280;37840;47.562;18.738;2023-06-01T01:09:29;99899.00;;;15.88;68.00
51245;BME280;37840;47.562;18.738;2023-06-01T01:12:21;99898.28;;;15.86;67.95
51245;BME280;37840;47.562;18.738;2023-06-01T01:15:12;99895.47;;;15.88;68.66
51245;BME280;37840;47.562;18.738;2023-06-01T01:17:45;99897.84;;;15.91;68.91
51245;BME280;37840;47.562;18.738;2023-06-01T01:20:26;99891.06;;;15.87;68.39
51245;BME280;37840;47.562;18.738;2023-06-01T01:28:54;99899.47;;;15.63;68.25
51245;BME280;37840;47.562;18.738;2023-06-01T01:31:24;99886.50;;;15.58;68.90
51245;BME280;37840;47.562;18.738;2023-06-01T01:33:55;99886.22;;;15.61;69.00
51245;BME280;37840;47.562;18.738;2023-06-01T01:36:23;99881.84;;;15.60;68.84
51245;BME280;37840;47.562;18.738;2023-06-01T01:38:49;99895.94;;;15.12;70.13
51245;BME280;37840;47.562;18.738;2023-06-01T01:41:15;99892.91;;;15.26;69.69
51245;BME280;37840;47.562;18.738;2023-06-01T01:43:42;99886.84;;;15.34;69.53
51245;BME280;37840;47.562;18.738;2023-06-01T01:51:54;99880.34;;;15.27;69.71
51245;BME280;37840;47.562;18.738;2023-06-01T01:54:23;99874.97;;;15.27;69.76
51245;BME280;37840;47.562;18.738;2023-06-01T01:56:52;99882.44;;;15.23;70.17
51245;BME280;37840;47.562;18.738;2023-06-01T01:59:19;99873.56;;;15.23;70.39
51245;BME280;37840;47.562;18.738;2023-06-01T02:01:46;99867.34;;;15.22;70.12
51245;BME280;37840;47.562;18.738;2023-06-01T02:04:12;99880.63;;;15.24;70.13
51245;BME280;37840;47.562;18.738;2023-06-01T02:06:38;99873.13;;;15.27;70.37
51245;BME280;37840;47.562;18.738;2023-06-01T02:09:04;99876.69;;;15.28;70.04
51245;BME280;37840;47.562;18.738;2023-06-01T02:11:34;99873.44;;;15.24;70.00
51245;BME280;37840;47.562;18.738;2023-06-01T02:14:00;99875.25;;;15.24;70.07
51245;BME280;37840;47.562;18.738;2023-06-01T02:16:26;99869.03;;;15.23;70.17
51245;BME280;37840;47.562;18.738;2023-06-01T02:18:52;99878.78;;;15.24;70.43
51245;BME280;37840;47.562;18.738;2023-06-01T02:21:18;99876.81;;;15.26;70.41
51245;BME280;37840;47.562;18.738;2023-06-01T02:23:44;99877.41;;;15.30;70.79
51245;BME280;37840;47.562;18.738;2023-06-01T02:26:10;99874.97;;;15.27;70.74
51245;BME280;37840;47.562;18.738;2023-06-01T02:28:37;99872.59;;;15.24;70.08
51245;BME280;37840;47.562;18.738;2023-06-01T02:31:05;99868.19;;;15.23;70.60
51245;BME280;37840;47.562;18.738;2023-06-01T02:33:31;99866.53;;;15.22;69.80
51245;BME280;37840;47.562;18.738;2023-06-01T02:35:59;99862.97;;;15.21;68.77
51245;BME280;37840;47.562;18.738;2023-06-01T02:38:25;99864.81;;;15.21;68.89
51245;BME280;37840;47.562;18.738;2023-06-01T02:40:51;99855.94;;;15.20;68.76
51245;BME280;37840;47.562;18.738;2023-06-01T02:43:18;99848.59;;;15.22;68.53
51245;BME280;37840;47.562;18.738;2023-06-01T02:45:44;99854.38;;;15.27;68.10
51245;BME280;37840;47.562;18.738;2023-06-01T02:48:10;99854.69;;;15.24;68.01
51245;BME280;37840;47.562;18.738;2023-06-01T02:50:36;99849.44;;;15.23;68.58
51245;BME280;37840;47.562;18.738;2023-06-01T02:53:02;99848.59;;;15.22;68.91
51245;BME280;37840;47.562;18.738;2023-06-01T02:55:28;99843.50;;;15.19;68.98
51245;BME280;37840;47.562;18.738;2023-06-01T02:57:54;99853.38;;;15.19;68.58
51245;BME280;37840;47.562;18.738;2023-06-01T03:00:20;99852.53;;;15.18;68.20
51245;BME280;37840;47.562;18.738;2023-06-01T03:02:47;99855.56;;;15.04;70.24
51245;BME280;37840;47.562;18.738;2023-06-01T03:05:14;99849.66;;;15.00;70.79
51245;BME280;37840;47.562;18.738;2023-06-01T03:07:44;99856.41;;;14.95;71.39
51245;BME280;37840;47.562;18.738;2023-06-01T03:10:10;99854.84;;;14.92;70.98
51245;BME280;37840;47.562;18.738;2023-06-01T03:12:36;99860.84;;;14.84;70.86
51245;BME280;37840;47.562;18.738;2023-06-01T03:15:03;99862.72;;;14.63;70.92
51245;BME280;37840;47.562;18.738;2023-06-01T03:17:31;99864.28;;;14.65;70.93
51245;BME280;37840;47.562;18.738;2023-06-01T03:19:57;99865.41;;;14.63;71.86
51245;BME280;37840;47.562;18.738;2023-06-01T03:22:24;99862.00;;;14.61;72.27
51245;BME280;37840;47.562;18.738;2023-06-01T03:24:50;99866.13;;;14.65;72.22
51245;BME280;37840;47.562;18.738;2023-06-01T03:27:16;99868.25;;;14.71;72.29
51245;BME280;37840;47.562;18.738;2023-06-01T03:29:42;99862.63;;;14.74;72.14
51245;BME280;37840;47.562;18.738;2023-06-01T03:32:08;99856.75;;;14.80;72.17
51245;BME280;37840;47.562;18.738;2023-06-01T03:34:34;99858.47;;;14.81;72.49
51245;BME280;37840;47.562;18.738;2023-06-01T03:37:02;99852.41;;;14.89;72.23
51245;BME280;37840;47.562;18.738;2023-06-01T03:39:30;99855.81;;;14.91;71.58
51245;BME280;37840;47.562;18.738;2023-06-01T03:41:59;99869.06;;;14.93;71.80
51245;BME280;37840;47.562;18.738;2023-06-01T03:44:25;99860.50;;;14.99;70.19
51245;BME280;37840;47.562;18.738;2023-06-01T03:46:51;99853.91;;;15.03;70.53
51245;BME280;37840;47.562;18.738;2023-06-01T03:49:17;99857.66;;;14.91;70.57
51245;BME280;37840;47.562;18.738;2023-06-01T03:51:44;99852.47;;;14.99;71.02
51245;BME280;37840;47.562;18.738;2023-06-01T03:54:10;99858.97;;;15.06;71.21
51245;BME280;37840;47.562;18.738;2023-06-01T03:56:36;99852.50;;;15.08;70.93
51245;BME280;37840;47.562;18.738;2023-06-01T03:59:02;99853.38;;;15.19;69.83
51245;BME280;37840;47.562;18.738;2023-06-01T04:01:28;99843.25;;;15.22;69.89
51245;BME280;37840;47.562;18.738;2023-06-01T04:03:58;99845.25;;;15.30;69.46
51245;BME280;37840;47.562;18.738;2023-06-01T04:06:24;99852.59;;;15.38;69.60
51245;BME280;37840;47.562;18.738;2023-06-01T04:08:50;99855.72;;;15.43;71.21
51245;BME280;37840;47.562;18.738;2023-06-01T04:11:21;99850.19;;;15.35;75.27
51245;BME280;37840;47.562;18.738;2023-06-01T04:13:48;99843.28;;;15.42;74.52
51245;BME280;37840;47.562;18.738;2023-06-01T04:16:15;99851.47;;;15.40;75.96
51245;BME280;37840;47.562;18.738;2023-06-01T04:18:41;99852.88;;;15.44;75.90
51245;BME280;37840;47.562;18.738;2023-06-01T04:21:07;99858.81;;;15.48;75.84
51245;BME280;37840;47.562;18.738;2023-06-01T04:23:35;99854.75;;;15.54;75.87
51245;BME280;37840;47.562;18.738;2023-06-01T04:26:03;99857.72;;;15.60;75.80
51245;BME280;37840;47.562;18.738;2023-06-01T04:28:29;99854.50;;;15.66;74.89
51245;BME280;37840;47.562;18.738;2023-06-01T04:31:01;99856.75;;;15.71;74.01
51245;BME280;37840;47.562;18.738;2023-06-01T04:33:28;99847.19;;;15.78;72.82
51245;BME280;37840;47.562;18.738;2023-06-01T04:35:54;99852.97;;;15.93;72.09
51245;BME280;37840;47.562;18.738;2023-06-01T04:38:20;99852.69;;;16.06;70.24
51245;BME280;37840;47.562;18.738;2023-06-01T04:40:47;99847.03;;;16.19;69.89
51245;BME280;37840;47.562;18.738;2023-06-01T04:43:13;99852.53;;;16.27;70.15
51245;BME280;37840;47.562;18.738;2023-06-01T04:45:45;99852.97;;;16.32;69.70
51245;BME280;37840;47.562;18.738;2023-06-01T04:48:11;99844.06;;;16.41;68.83
51245;BME280;37840;47.562;18.738;2023-06-01T04:51:01;99853.06;;;16.60;65.35
51245;BME280;37840;47.562;18.738;2023-06-01T04:53:27;99861.38;;;16.57;73.55
51245;BME280;37840;47.562;18.738;2023-06-01T04:55:53;99859.41;;;16.59;77.42
51245;BME280;37840;47.562;18.738;2023-06-01T04:58:19;99859.72;;;16.46;80.35
51245;BME280;37840;47.562;18.738;2023-06-01T05:00:46;99860.81;;;16.53;77.34
51245;BME280;37840;47.562;18.738;2023-06-01T05:03:12;99867.06;;;16.54;80.30
51245;BME280;37840;47.562;18.738;2023-06-01T05:05:38;99874.84;;;16.47;78.14
51245;BME280;37840;47.562;18.738;2023-06-01T05:08:04;99872.72;;;16.31;77.76
51245;BME280;37840;47.562;18.738;2023-06-01T05:10:30;99872.31;;;16.36;77.19
51245;BME280;37840;47.562;18.738;2023-06-01T05:12:56;99870.31;;;16.47;75.38
51245;BME280;37840;47.562;18.738;2023-06-01T05:15:21;99867.59;;;16.57;76.65
51245;BME280;37840;47.562;18.738;2023-06-01T05:17:47;99873.97;;;16.56;75.67
51245;BME280;37840;47.562;18.738;2023-06-01T05:20:13;99866.88;;;16.65;74.39
51245;BME280;37840;47.562;18.738;2023-06-01T05:22:39;99863.06;;;16.67;75.27
51245;BME280;37840;47.562;18.738;2023-06-01T05:25:05;99872.66;;;16.70;75.13
51245;BME280;37840;47.562;18.738;2023-06-01T05:27:31;99877.31;;;16.87;75.67
51245;BME280;37840;47.562;18.738;2023-06-01T05:29:57;99870.50;;;16.93;74.85
51245;BME280;37840;47.562;18.738;2023-06-01T05:32:23;99871.06;;;16.97;75.51
51245;BME280;37840;47.562;18.738;2023-06-01T05:34:49;99870.72;;;17.09;80.33
51245;BME280;37840;47.562;18.738;2023-06-01T05:37:15;99868.69;;;17.21;78.20
51245;BME280;37840;47.562;18.738;2023-06-01T05:39:41;99872.53;;;17.19;73.73
51245;BME280;37840;47.562;18.738;2023-06-01T05:42:07;99871.09;;;17.24;71.77
51245;BME280;37840;47.562;18.738;2023-06-01T05:44:33;99875.53;;;17.43;76.82
51245;BME280;37840;47.562;18.738;2023-06-01T05:46:59;99871.69;;;17.46;68.45
51245;BME280;37840;47.562;18.738;2023-06-01T05:49:25;99864.97;;;17.60;67.75
51245;BME280;37840;47.562;18.738;2023-06-01T05:51:50;99863.72;;;17.72;66.56
51245;BME280;37840;47.562;18.738;2023-06-01T05:54:16;99870.94;;;17.71;66.99
51245;BME280;37840;47.562;18.738;2023-06-01T05:56:43;99870.31;;;17.87;64.56
51245;BME280;37840;47.562;18.738;2023-06-01T05:59:10;99869.16;;;17.90;62.13
51245;BME280;37840;47.562;18.738;2023-06-01T06:01:36;99857.78;;;18.14;63.14
51245;BME280;37840;47.562;18.738;2023-06-01T06:04:02;99866.25;;;18.19;60.88
51245;BME280;37840;47.562;18.738;2023-06-01T06:06:28;99862.28;;;18.31;59.85
51245;BME280;37840;47.562;18.738;2023-06-01T06:08:54;99869.59;;;18.39;60.35
51245;BME280;37840;47.562;18.738;2023-06-01T06:11:20;99861.25;;;18.50;58.25
51245;BME280;37840;47.562;18.738;2023-06-01T06:13:48;99865.31;;;18.54;57.11
51245;BME280;37840;47.562;18.738;2023-06-01T06:16:15;99865.06;;;18.66;57.06
51245;BME280;37840;47.562;18.738;2023-06-01T06:18:41;99864.28;;;18.73;54.23
51245;BME280;37840;47.562;18.738;2023-06-01T06:21:07;99863.81;;;18.78;55.84
51245;BME280;37840;47.562;18.738;2023-06-01T06:23:33;99863.19;;;18.84;55.02
51245;BME280;37840;47.562;18.738;2023-06-01T06:25:59;99863.87;;;18.86;55.09
51245;BME280;37840;47.562;18.738;2023-06-01T06:28:25;99869.47;;;18.93;55.91
51245;BME280;37840;47.562;18.738;2023-06-01T06:30:52;99868.66;;;19.01;58.37
51245;BME280;37840;47.562;18.738;2023-06-01T06:36:46;99872.81;;;19.21;58.62
51245;BME280;37840;47.562;18.738;2023-06-01T06:39:12;99870.84;;;19.40;59.14
51245;BME280;37840;47.562;18.738;2023-06-01T06:41:42;99869.19;;;19.39;57.80
51245;BME280;37840;47.562;18.738;2023-06-01T06:44:08;99861.41;;;19.35;61.69
51245;BME280;37840;47.562;18.738;2023-06-01T06:46:34;99868.84;;;19.42;61.26
51245;BME280;37840;47.562;18.738;2023-06-01T06:48:59;99867.34;;;19.47;62.25
51245;BME280;37840;47.562;18.738;2023-06-01T06:51:26;99866.22;;;19.58;62.52
51245;BME280;37840;47.562;18.738;2023-06-01T06:53:52;99854.31;;;19.77;58.98
51245;BME280;37840;47.562;18.738;2023-06-01T06:56:18;99858.03;;;19.84;56.84
51245;BME280;37840;47.562;18.738;2023-06-01T06:58:44;99860.44;;;19.95;50.70
51245;BME280;37840;47.562;18.738;2023-06-01T07:01:11;99862.44;;;20.10;50.94
51245;BME280;37840;47.562;18.738;2023-06-01T07:03:37;99858.22;;;20.15;52.17
51245;BME280;37840;47.562;18.738;2023-06-01T07:06:04;99857.56;;;20.22;53.16
51245;BME280;37840;47.562;18.738;2023-06-01T07:08:30;99857.06;;;20.34;55.55
51245;BME280;37840;47.562;18.738;2023-06-01T07:11:00;99864.97;;;20.44;50.74
51245;BME280;37840;47.562;18.738;2023-06-01T07:13:26;99868.19;;;20.56;49.70
51245;BME280;37840;47.562;18.738;2023-06-01T07:15:53;99861.09;;;20.71;51.06
51245;BME280;37840;47.562;18.738;2023-06-01T07:18:18;99859.56;;;20.77;48.98
51245;BME280;37840;47.562;18.738;2023-06-01T07:20:44;99861.56;;;20.91;48.86
51245;BME280;37840;47.562;18.738;2023-06-01T07:23:10;99862.72;;;20.89;48.47
51245;BME280;37840;47.562;18.738;2023-06-01T07:25:38;99860.53;;;20.92;47.29
51245;BME280;37840;47.562;18.738;2023-06-01T07:28:04;99862.91;;;20.95;48.73
51245;BME280;37840;47.562;18.738;2023-06-01T07:30:34;99858.09;;;21.14;48.94
51245;BME280;37840;47.562;18.738;2023-06-01T07:33:00;99851.19;;;21.11;49.19
51245;BME280;37840;47.562;18.738;2023-06-01T07:35:29;99859.09;;;21.21;48.64
51245;BME280;37840;47.562;18.738;2023-06-01T07:37:55;99852.78;;;21.29;47.51
51245;BME280;37840;47.562;18.738;2023-06-01T07:40:21;99858.53;;;21.34;47.56
51245;BME280;37840;47.562;18.738;2023-06-01T07:42:47;99851.31;;;21.66;47.70
51245;BME280;37840;47.562;18.738;2023-06-01T07:45:13;99852.34;;;21.56;47.55
51245;BME280;37840;47.562;18.738;2023-06-01T07:47:39;99852.25;;;21.73;49.26
51245;BME280;37840;47.562;18.738;2023-06-01T07:50:06;99855.84;;;21.65;50.65
51245;BME280;37840;47.562;18.738;2023-06-01T07:52:37;99853.81;;;21.67;51.48
51245;BME280;37840;47.562;18.738;2023-06-01T07:55:03;99851.44;;;21.72;48.96
51245;BME280;37840;47.562;18.738;2023-06-01T07:57:29;99853.41;;;21.78;50.94
51245;BME280;37840;47.562;18.738;2023-06-01T07:59:55;99852.72;;;21.85;46.44
51245;BME280;37840;47.562;18.738;2023-06-01T08:02:21;99848.59;;;21.89;48.39
51245;BME280;37840;47.562;18.738;2023-06-01T08:04:47;99850.22;;;21.98;47.61
51245;BME280;37840;47.562;18.738;2023-06-01T08:07:13;99846.53;;;21.91;46.07
51245;BME280;37840;47.562;18.738;2023-06-01T08:09:42;99848.25;;;21.92;45.07
51245;BME280;37840;47.562;18.738;2023-06-01T08:12:09;99852.28;;;21.96;47.27
51245;BME280;37840;47.562;18.738;2023-06-01T08:14:36;99851.19;;;22.05;49.35
51245;BME280;37840;47.562;18.738;2023-06-01T08:17:03;99844.03;;;22.12;47.59
51245;BME280;37840;47.562;18.738;2023-06-01T08:19:29;99845.06;;;22.34;46.18
51245;BME280;37840;47.562;18.738;2023-06-01T08:21:55;99848.78;;;22.33;46.18
51245;BME280;37840;47.562;18.738;2023-06-01T08:24:21;99843.84;;;22.37;47.07
51245;BME280;37840;47.562;18.738;2023-06-01T08:26:48;99851.75;;;22.62;44.24
51245;BME280;37840;47.562;18.738;2023-06-01T08:29:14;99846.91;;;22.57;43.38
51245;BME280;37840;47.562;18.738;2023-06-01T08:31:40;99842.75;;;22.61;43.34
51245;BME280;37840;47.562;18.738;2023-06-01T08:34:06;99844.72;;;22.67;42.21
51245;BME280;37840;47.562;18.738;2023-06-01T08:36:32;99836.34;;;22.77;42.03
51245;BME280;37840;47.562;18.738;2023-06-01T08:38:58;99841.75;;;22.77;43.60
51245;BME280;37840;47.562;18.738;2023-06-01T08:41:29;99839.81;;;22.86;41.58
51245;BME280;37840;47.562;18.738;2023-06-01T08:44:02;99839.16;;;22.98;44.79
51245;BME280;37840;47.562;18.738;2023-06-01T08:46:32;99836.34;;;22.77;44.09
51245;BME280;37840;47.562;18.738;2023-06-01T08:48:59;99834.66;;;22.76;44.21
51245;BME280;37840;47.562;18.738;2023-06-01T08:51:25;99834.03;;;22.89;41.99
51245;BME280;37840;47.562;18.738;2023-06-01T08:53:53;99834.56;;;22.84;45.14
51245;BME280;37840;47.562;18.738;2023-06-01T08:56:22;99835.03;;;22.88;42.62
51245;BME280;37840;47.562;18.738;2023-06-01T08:58:49;99829.03;;;22.92;44.12
51245;BME280;37840;47.562;18.738;2023-06-01T09:01:17;99828.47;;;22.82;43.39
51245;BME280;37840;47.562;18.738;2023-06-01T09:03:44;99831.00;;;22.84;45.87
51245;BME280;37840;47.562;18.738;2023-06-01T09:06:10;99832.81;;;22.91;44.14
51245;BME280;37840;47.562;18.738;2023-06-01T09:08:36;99824.88;;;23.05;44.53
51245;BME280;37840;47.562;18.738;2023-06-01T09:11:02;99823.66;;;23.07;41.77
51245;BME280;37840;47.562;18.738;2023-06-01T09:15:58;99824.81;;;23.49;44.52
51245;BME280;37840;47.562;18.738;2023-06-01T09:18:24;99820.03;;;23.51;41.90
51245;BME280;37840;47.562;18.738;2023-06-01T09:20:50;99810.66;;;23.54;42.40
51245;BME280;37840;47.562;18.738;2023-06-01T09:23:26;99818.72;;;23.47;44.04
51245;BME280;37840;47.562;18.738;2023-06-01T09:26:10;99808.38;;;23.36;46.65
51245;BME280;37840;47.562;18.738;2023-06-01T09:34:02;99811.81;;;23.81;44.88
51245;BME280;37840;47.562;18.738;2023-06-01T09:36:29;99807.62;;;23.78;44.92
51245;BME280;37840;47.562;18.738;2023-06-01T09:39:02;99808.34;;;23.72;46.47
51245;BME280;37840;47.562;18.738;2023-06-01T09:42:01;99808.06;;;23.82;42.99
51245;BME280;37840;47.562;18.738;2023-06-01T09:44:33;99803.03;;;23.79;45.49
51245;BME280;37840;47.562;18.738;2023-06-01T09:47:04;99805.78;;;23.86;46.11
51245;BME280;37840;47.562;18.738;2023-06-01T09:49:35;99812.06;;;23.86;44.02
51245;BME280;37840;47.562;18.738;2023-06-01T09:54:32;99801.53;;;23.98;46.76
51245;BME280;37840;47.562;18.738;2023-06-01T09:57:00;99796.63;;;24.08;45.95
51245;BME280;37840;47.562;18.738;2023-06-01T09:59:27;99799.84;;;24.18;39.28
51245;BME280;37840;47.562;18.738;2023-06-01T10:01:57;99800.34;;;24.07;44.82
51245;BME280;37840;47.562;18.738;2023-06-01T10:04:25;99797.63;;;24.07;46.60
51245;BME280;37840;47.562;18.738;2023-06-01T10:06:56;99793.84;;;24.01;41.14
51245;BME280;37840;47.562;18.738;2023-06-01T10:09:22;99796.06;;;24.19;42.63
51245;BME280;37840;47.562;18.738;2023-06-01T10:11:53;99797.47;;;24.37;42.57
51245;BME280;37840;47.562;18.738;2023-06-01T10:14:24;99801.56;;;24.26;44.10
51245;BME280;37840;47.562;18.738;2023-06-01T10:16:52;99788.81;;;24.27;41.43
51245;BME280;37840;47.562;18.738;2023-06-01T10:19:21;99789.25;;;24.30;43.29
51245;BME280;37840;47.562;18.738;2023-06-01T10:21:47;99781.75;;;24.32;45.71
51245;BME280;37840;47.562;18.738;2023-06-01T10:24:14;99781.94;;;24.31;43.95
51245;BME280;37840;47.562;18.738;2023-06-01T10:29:11;99768.62;;;24.36;41.22
51245;BME280;37840;47.562;18.738;2023-06-01T10:31:42;99772.28;;;24.50;42.90
51245;BME280;37840;47.562;18.738;2023-06-01T10:34:09;99766.72;;;24.36;40.83
51245;BME280;37840;47.562;18.738;2023-06-01T10:39:28;99762.50;;;24.55;41.19
51245;BME280;37840;47.562;18.738;2023-06-01T10:42:44;99763.66;;;24.46;40.86
51245;BME280;37840;47.562;18.738;2023-06-01T10:44:46;99761.06;;;24.59;42.35
51245;BME280;37840;47.562;18.738;2023-06-01T10:57:30;99756.00;;;24.56;42.92
51245;BME280;37840;47.562;18.738;2023-06-01T11:02:58;99754.25;;;24.77;45.35
51245;BME280;37840;47.562;18.738;2023-06-01T11:10:57;99730.47;;;24.92;41.69
51245;BME280;37840;47.562;18.738;2023-06-01T11:13:30;99744.94;;;24.99;44.77
51245;BME280;37840;47.562;18.738;2023-06-01T11:18:56;99736.94;;;24.85;44.86
51245;BME280;37840;47.562;18.738;2023-06-01T11:24:16;99734.56;;;25.16;42.76
51245;BME280;37840;47.562;18.738;2023-06-01T11:26:48;99723.84;;;25.15;39.12
51245;BME280;37840;47.562;18.738;2023-06-01T11:29:27;99724.13;;;25.27;40.29
51245;BME280;37840;47.562;18.738;2023-06-01T11:31:56;99718.66;;;25.27;39.11
51245;BME280;37840;47.562;18.738;2023-06-01T11:34:34;99714.31;;;25.46;40.06
51245;BME280;37840;47.562;18.738;2023-06-01T11:37:03;99710.59;;;25.67;41.10
51245;BME280;37840;47.562;18.738;2023-06-01T11:39:29;99702.41;;;25.67;38.28
51245;BME280;37840;47.562;18.738;2023-06-01T11:42:17;99695.31;;;25.66;39.43
51245;BME280;37840;47.562;18.738;2023-06-01T11:44:45;99696.13;;;25.53;42.07
51245;BME280;37840;47.562;18.738;2023-06-01T11:47:12;99693.41;;;25.66;41.13
51245;BME280;37840;47.562;18.738;2023-06-01T11:49:46;99691.53;;;25.80;40.91
51245;BME280;37840;47.562;18.738;2023-06-01T11:52:14;99689.25;;;25.90;40.74
51245;BME280;37840;47.562;18.738;2023-06-01T11:54:40;99681.69;;;25.92;40.23
51245;BME280;37840;47.562;18.738;2023-06-01T11:57:07;99684.59;;;25.84;39.91
51245;BME280;37840;47.562;18.738;2023-06-01T11:59:47;99682.09;;;25.69;41.14
51245;BME280;37840;47.562;18.738;2023-06-01T12:02:26;99672.06;;;25.70;41.34
51245;BME280;37840;47.562;18.738;2023-06-01T12:05:01;99667.22;;;25.85;40.51
51245;BME280;37840;47.562;18.738;2023-06-01T12:10:11;99666.37;;;25.51;40.36
51245;BME280;37840;47.562;18.738;2023-06-01T12:12:40;99670.78;;;25.59;43.68
51245;BME280;37840;47.562;18.738;2023-06-01T12:15:08;99668.28;;;25.51;42.00
51245;BME280;37840;47.562;18.738;2023-06-01T12:22:59;99659.47;;;25.42;42.62
51245;BME280;37840;47.562;18.738;2023-06-01T12:25:29;99654.03;;;25.49;41.99
51245;BME280;37840;47.562;18.738;2023-06-01T12:30:30;99641.47;;;25.68;39.08
51245;BME280;37840;47.562;18.738;2023-06-01T12:32:56;99634.72;;;25.83;37.07
51245;BME280;37840;47.562;18.738;2023-06-01T12:35:22;99640.22;;;25.63;40.02
51245;BME280;37840;47.562;18.738;2023-06-01T12:38:08;99629.72;;;25.67;36.00
51245;BME280;37840;47.562;18.738;2023-06-01T12:40:37;99626.16;;;25.67;38.96
51245;BME280;37840;47.562;18.738;2023-06-01T12:43:04;99634.34;;;25.47;40.35
51245;BME280;37840;47.562;18.738;2023-06-01T12:45:37;99629.31;;;25.50;40.01
51245;BME280;37840;47.562;18.738;2023-06-01T12:48:06;99627.84;;;25.54;41.98
51245;BME280;37840;47.562;18.738;2023-06-01T12:50:33;99617.16;;;25.59;41.72
51245;BME280;37840;47.562;18.738;2023-06-01T12:52:59;99611.50;;;25.74;41.98
51245;BME280;37840;47.562;18.738;2023-06-01T12:55:25;99618.19;;;25.98;40.82
51245;BME280;37840;47.562;18.738;2023-06-01T12:58:12;99610.38;;;26.22;40.26
51245;BME280;37840;47.562;18.738;2023-06-01T13:00:38;99611.44;;;26.21;42.10
51245;BME280;37840;47.562;18.738;2023-06-01T13:03:04;99606.41;;;26.24;40.18
51245;BME280;37840;47.562;18.738;2023-06-01T13:05:30;99604.72;;;26.23;40.45
51245;BME280;37840;47.562;18.738;2023-06-01T13:07:57;99607.81;;;26.40;42.06
51245;BME280;37840;47.562;18.738;2023-06-01T13:10:26;99600.00;;;26.51;43.15
51245;BME280;37840;47.562;18.738;2023-06-01T13:12:52;99596.00;;;26.60;40.77
51245;BME280;37840;47.562;18.738;2023-06-01T13:15:18;99590.69;;;26.72;39.33
51245;BME280;37840;47.562;18.738;2023-06-01T13:17:44;99582.94;;;26.69;41.46
51245;BME280;37840;47.562;18.738;2023-06-01T13:20:10;99594.06;;;26.74;40.08
51245;BME280;37840;47.562;18.738;2023-06-01T13:22:40;99582.97;;;26.62;39.33
51245;BME280;37840;47.562;18.738;2023-06-01T13:25:06;99581.31;;;26.61;40.67
51245;BME280;37840;47.562;18.738;2023-06-01T13:27:35;99580.47;;;26.67;38.47
51245;BME280;37840;47.562;18.738;2023-06-01T13:30:02;99580.75;;;26.39;38.33
51245;BME280;37840;47.562;18.738;2023-06-01T13:32:29;99581.56;;;26.39;38.70
51245;BME280;37840;47.562;18.738;2023-06-01T13:34:55;99577.19;;;26.38;39.22
51245;BME280;37840;47.562;18.738;2023-06-01T13:37:22;99572.00;;;26.23;36.88
51245;BME280;37840;47.562;18.738;2023-06-01T13:39:48;99569.47;;;26.22;38.27
51245;BME280;37840;47.562;18.738;2023-06-01T13:42:16;99565.50;;;26.18;39.44
51245;BME280;37840;47.562;18.738;2023-06-01T13:44:42;99558.75;;;26.34;39.44
51245;BME280;37840;47.562;18.738;2023-06-01T13:47:14;99558.56;;;26.29;41.72
51245;BME280;37840;47.562;18.738;2023-06-01T13:49:44;99557.94;;;26.33;38.94
51245;BME280;37840;47.562;18.738;2023-06-01T13:52:10;99559.37;;;26.36;37.73
51245;BME280;37840;47.562;18.738;2023-06-01T13:54:38;99551.16;;;26.42;37.44
51245;BME280;37840;47.562;18.738;2023-06-01T13:57:04;99558.06;;;26.45;37.68
51245;BME280;37840;47.562;18.738;2023-06-01T13:59:31;99545.78;;;26.29;39.35
51245;BME280;37840;47.562;18.738;2023-06-01T14:02:00;99537.13;;;26.39;38.71